Time;durP1;ratioP1;P1;durP2;ratioP2;P2;SDS_P1;SDS_P2;PMS_P1;PMS_P2;Temp;Humidity;BMP_temperature;BMP_pressure;BME280_temperature;BME280_humidity;BME280_pressure;Samples;Min_cycle;Max_cycle;Signal;HPM_P1;HPM_P2
2022/06/16 00:02:06;;;;;;;7.70;3.35;;;;;;;18.40;54.53;101691.56;6338381;22;20124;-85
2022/06/16 00:04:32;;;;;;;8.27;3.20;;;;;;;18.24;54.07;101669.28;6339661;22;20006;-85
2022/06/16 00:07:02;;;;;;;6.05;3.40;;;;;;;18.24;53.89;101672.03;6337854;22;20007;-85
2022/06/16 00:09:28;;;;;;;7.65;3.55;;;;;;;18.20;53.56;101672.78;6338319;22;19999;-85
2022/06/16 00:11:54;;;;;;;7.33;3.50;;;;;;;18.21;53.79;101679.94;6311842;22;20082;-85
2022/06/16 00:14:19;;;;;;;7.45;3.70;;;;;;;18.19;54.10;101671.13;6338322;22;20039;-85
2022/06/16 00:16:45;;;;;;;7.77;3.27;;;;;;;18.19;54.14;101688.44;6337945;22;20002;-85
2022/06/16 00:19:11;;;;;;;7.47;3.20;;;;;;;18.11;53.90;101677.00;6338186;22;20026;-85
2022/06/16 00:21:36;;;;;;;7.07;3.50;;;;;;;18.09;54.47;101680.00;6338161;22;20038;-85
2022/06/16 00:24:02;;;;;;;6.73;3.30;;;;;;;18.07;54.69;101684.91;6312315;22;20003;-85
2022/06/16 00:26:28;;;;;;;7.03;3.43;;;;;;;18.05;54.55;101693.41;6339841;22;20038;-86
2022/06/16 00:28:54;;;;;;;4.93;3.20;;;;;;;17.96;54.56;101683.88;6338033;22;20241;-85
2022/06/16 00:31:22;;;;;;;6.57;3.55;;;;;;;17.98;54.46;101691.84;6332724;22;20022;-85
2022/06/16 00:33:48;;;;;;;5.55;3.60;;;;;;;17.88;53.93;101685.06;6308116;22;20038;-85
2022/06/16 00:36:14;;;;;;;6.27;3.37;;;;;;;17.81;54.51;101675.31;6308447;22;20078;-85
2022/06/16 00:38:40;;;;;;;7.32;4.07;;;;;;;17.71;55.03;101690.47;6281029;22;20471;-85
2022/06/16 00:41:07;;;;;;;6.50;3.53;;;;;;;17.57;54.98;101686.34;6280088;22;20101;-85
2022/06/16 00:43:33;;;;;;;7.03;3.87;;;;;;;17.58;54.91;101692.66;6308402;22;20029;-85
2022/06/16 00:46:05;;;;;;;7.47;3.47;;;;;;;17.54;55.61;101706.03;6280409;22;20341;-85
2022/06/16 00:48:53;;;;;;;5.25;3.58;;;;;;;17.43;54.84;101695.91;6280038;22;20015;-85
2022/06/16 00:51:24;;;;;;;6.00;3.77;;;;;;;17.40;55.26;101708.19;6280259;22;20356;-85
2022/06/16 00:53:52;;;;;;;8.30;4.05;;;;;;;17.28;55.75;101697.22;6281070;22;20089;-85
2022/06/16 00:56:20;;;;;;;6.85;3.83;;;;;;;17.17;56.03;101706.31;6280964;22;20026;-85
2022/06/16 00:58:50;;;;;;;9.02;3.97;;;;;;;17.10;56.01;101700.13;6308111;22;20072;-85
2022/06/16 01:01:22;;;;;;;8.43;4.05;;;;;;;17.09;55.77;101714.91;6307838;22;20086;-85
2022/06/16 01:06:32;;;;;;;9.48;4.38;;;;;;;16.97;56.64;101702.00;6308040;22;20033;-85
2022/06/16 01:09:02;;;;;;;5.10;3.83;;;;;;;16.97;57.12;101701.19;6280529;22;20425;-84
2022/06/16 01:15:04;;;;;;;6.60;4.17;;;;;;;16.96;56.28;101721.44;6307917;22;20336;-85
2022/06/16 01:17:37;;;;;;;7.18;3.90;;;;;;;16.90;55.95;101719.66;6307358;22;20061;-85
2022/06/16 01:20:31;;;;;;;6.95;4.05;;;;;;;16.85;54.98;101714.84;6307704;22;20070;-85
2022/06/16 01:23:18;;;;;;;5.00;3.88;;;;;;;16.81;55.85;101722.69;6281039;22;20007;-85
2022/06/16 01:25:58;;;;;;;10.52;3.92;;;;;;;16.72;56.23;101724.09;6308118;22;20003;-85
2022/06/16 01:28:34;;;;;;;8.27;3.93;;;;;;;16.58;56.35;101720.75;6308160;22;20004;-85
2022/06/16 01:31:22;;;;;;;7.80;4.30;;;;;;;16.60;56.98;101728.75;6307661;22;20025;-85
2022/06/16 01:34:10;;;;;;;5.45;3.80;;;;;;;16.45;56.58;101727.25;6280249;22;20455;-85
2022/06/16 01:36:51;;;;;;;6.28;4.05;;;;;;;16.43;56.54;101739.50;6280555;22;20025;-85
2022/06/16 01:39:33;;;;;;;9.65;4.10;;;;;;;16.42;57.20;101746.06;6308028;22;20014;-85
2022/06/16 01:42:09;;;;;;;6.13;4.00;;;;;;;16.33;57.31;101733.75;6280659;22;20023;-85
2022/06/16 01:44:45;;;;;;;7.20;4.10;;;;;;;16.23;57.49;101726.13;6280383;22;20007;-85
2022/06/16 01:47:18;;;;;;;8.07;3.83;;;;;;;16.20;57.66;101732.88;6307215;22;20082;-85
2022/06/16 01:49:55;;;;;;;7.43;4.10;;;;;;;16.11;57.68;101726.91;6280375;22;20011;-85
2022/06/16 01:52:25;;;;;;;8.77;3.88;;;;;;;16.09;58.23;101729.03;6308461;22;19999;-84
2022/06/16 01:54:59;;;;;;;7.03;3.87;;;;;;;16.06;58.65;101734.97;6282312;22;20014;-84
2022/06/16 01:57:35;;;;;;;8.55;3.83;;;;;;;16.03;59.63;101738.16;6282549;22;20003;-84
2022/06/16 02:00:02;;;;;;;5.60;4.03;;;;;;;15.99;59.35;101741.56;6309989;22;20154;-85
2022/06/16 02:02:32;;;;;;;6.82;3.90;;;;;;;15.96;59.80;101746.47;6309867;22;20027;-85
2022/06/16 02:05:07;;;;;;;7.20;4.35;;;;;;;15.86;59.60;101743.44;6309830;22;19999;-84
2022/06/16 02:07:43;;;;;;;7.87;4.00;;;;;;;15.78;60.41;101738.25;6282516;22;20421;-84
2022/06/16 02:10:32;;;;;;;7.07;4.00;;;;;;;15.72;59.83;101734.53;6309783;22;20006;-85
2022/06/16 02:12:59;;;;;;;6.80;4.13;;;;;;;15.66;61.14;101720.91;6309504;22;20003;-84
2022/06/16 02:15:40;;;;;;;6.72;4.20;;;;;;;15.61;59.98;101727.88;6282549;22;20018;-84
2022/06/16 02:18:09;;;;;;;12.75;4.10;;;;;;;15.51;61.26;101721.28;6281840;22;20003;-84
2022/06/16 02:20:50;;;;;;;11.23;4.10;;;;;;;15.48;61.16;101732.69;6282709;22;20054;-85
2022/06/16 02:23:16;;;;;;;6.40;4.88;;;;;;;15.41;62.02;101735.47;6282330;22;20082;-85
2022/06/16 02:25:43;;;;;;;9.00;4.30;;;;;;;15.38;62.43;101733.19;6282410;22;20376;-85
2022/06/16 02:28:08;;;;;;;9.45;4.53;;;;;;;15.37;62.39;101743.31;6282052;22;20003;-85
2022/06/16 02:30:46;;;;;;;8.13;4.57;;;;;;;15.33;61.88;101744.81;6309532;22;20053;-85
2022/06/16 02:33:31;;;;;;;7.20;4.33;;;;;;;15.29;61.39;101754.50;6334698;22;20271;-85
2022/06/16 02:36:29;;;;;;;10.38;4.57;;;;;;;15.30;61.12;101779.97;6340714;22;20002;-85
2022/06/16 02:39:12;;;;;;;7.35;4.53;;;;;;;15.23;62.22;101789.06;6339157;22;20052;-85
2022/06/16 02:41:57;;;;;;;7.53;4.30;;;;;;;15.18;62.44;101790.81;6339564;22;20007;-85
2022/06/16 02:44:41;;;;;;;8.00;4.57;;;;;;;15.11;62.62;101795.50;6339304;22;20028;-85
2022/06/16 02:47:45;;;;;;;7.13;5.10;;;;;;;15.02;63.17;101800.38;6338818;22;20010;-85
2022/06/16 02:50:23;;;;;;;12.25;5.10;;;;;;;14.91;64.29;101796.44;6277575;22;20003;-85
2022/06/16 02:53:03;;;;;;;8.57;4.97;;;;;;;14.87;63.50;101797.97;6338016;22;20018;-85
2022/06/16 02:55:38;;;;;;;8.95;4.80;;;;;;;14.77;63.81;101789.44;6339077;22;20034;-85
2022/06/16 02:58:05;;;;;;;9.15;4.72;;;;;;;14.68;64.29;101788.84;6338930;22;20374;-85
2022/06/16 03:00:37;;;;;;;7.73;4.67;;;;;;;14.66;64.97;101793.69;6312849;22;20038;-85
2022/06/16 03:03:36;;;;;;;11.23;5.07;;;;;;;14.65;63.22;101803.78;6340504;22;20006;-84
2022/06/16 03:06:03;;;;;;;7.68;4.80;;;;;;;14.56;65.19;101797.69;6272846;22;20011;-84
2022/06/16 03:08:31;;;;;;;8.75;4.90;;;;;;;14.59;65.00;101806.53;6338812;22;20003;-85
2022/06/16 03:10:58;;;;;;;7.15;4.80;;;;;;;14.44;65.13;101796.72;6338739;22;20081;-85
2022/06/16 03:13:32;;;;;;;8.17;5.17;;;;;;;14.49;64.58;101802.34;6340448;22;20007;-85
2022/06/16 03:15:59;;;;;;;10.23;5.15;;;;;;;14.41;66.36;101799.03;6338906;22;20037;-85
2022/06/16 03:18:26;;;;;;;10.93;4.85;;;;;;;14.39;66.24;101800.13;6338444;22;20049;-85
2022/06/16 03:20:51;;;;;;;5.53;5.00;;;;;;;14.37;66.69;101802.22;6338771;22;20010;-85
2022/06/16 03:23:18;;;;;;;8.03;5.13;;;;;;;14.33;65.78;101802.88;6340367;22;20127;-85
2022/06/16 03:25:43;;;;;;;10.07;4.90;;;;;;;14.33;65.84;101800.13;6338651;22;20010;-85
2022/06/16 03:28:10;;;;;;;9.32;5.00;;;;;;;14.28;65.88;101795.34;6338628;22;19999;-85
2022/06/16 03:30:36;;;;;;;9.15;5.05;;;;;;;14.29;65.90;101790.69;6338637;22;20027;-85
2022/06/16 03:33:03;;;;;;;10.77;4.90;;;;;;;14.25;66.27;101790.31;6338333;22;20018;-85
2022/06/16 03:35:29;;;;;;;7.72;4.93;;;;;;;14.28;65.97;101795.34;6338306;22;20085;-85
2022/06/16 03:37:55;;;;;;;10.60;5.05;;;;;;;14.30;65.78;101804.13;6339953;22;20006;-85
2022/06/16 03:40:22;;;;;;;7.20;4.97;;;;;;;14.21;65.71;101800.81;6338537;22;20428;-85
2022/06/16 03:42:50;;;;;;;10.27;5.45;;;;;;;14.29;66.85;101821.59;6340020;22;20010;-85
2022/06/16 03:45:16;;;;;;;9.32;5.15;;;;;;;14.29;67.29;101821.59;6312511;22;20420;-85
2022/06/16 03:47:48;;;;;;;7.17;4.80;;;;;;;14.24;66.67;101817.81;6338009;22;20042;-85
2022/06/16 03:50:17;;;;;;;11.32;5.20;;;;;;;14.22;66.32;101818.03;6340711;22;20052;-85
2022/06/16 03:52:42;;;;;;;5.85;4.82;;;;;;;14.26;66.14;101826.63;6338584;22;19998;-85
2022/06/16 03:55:09;;;;;;;9.53;5.30;;;;;;;14.26;66.35;101834.81;6340091;22;20006;-85
2022/06/16 03:57:34;;;;;;;11.85;5.65;;;;;;;14.18;67.24;101831.25;6338100;22;20002;-85
2022/06/16 04:00:00;;;;;;;9.93;5.37;;;;;;;14.19;67.43;101837.59;6312696;22;20010;-85
2022/06/16 04:02:25;;;;;;;9.05;4.97;;;;;;;14.21;66.96;101844.47;6312327;22;20011;-85
2022/06/16 04:04:50;;;;;;;9.80;5.40;;;;;;;14.13;66.95;101839.28;6312313;22;20014;-85
2022/06/16 04:07:16;;;;;;;11.37;5.27;;;;;;;14.21;66.82;101863.59;6338935;22;20044;-85
2022/06/16 04:09:42;;;;;;;8.35;5.45;;;;;;;14.19;67.38;101845.78;6338403;22;20007;-85
2022/06/16 04:12:10;;;;;;;7.17;5.40;;;;;;;14.17;67.40;101848.72;6338348;22;20059;-85
2022/06/16 04:14:37;;;;;;;11.30;5.60;;;;;;;14.20;66.94;101858.34;6338226;22;20006;-85
2022/06/16 04:17:03;;;;;;;7.47;5.00;;;;;;;14.17;66.70;101854.16;6337901;22;20007;-85
2022/06/16 04:19:28;;;;;;;13.33;5.50;;;;;;;14.18;66.96;101844.91;6337706;22;20014;-85
2022/06/16 04:21:54;;;;;;;8.35;5.35;;;;;;;14.21;66.45;101849.94;6312450;22;20011;-85
2022/06/16 04:24:22;;;;;;;10.40;5.13;;;;;;;14.32;66.14;101864.81;6338154;22;20443;-85
2022/06/16 04:26:54;;;;;;;12.10;5.10;;;;;;;14.32;65.72;101864.81;6338093;22;20002;-85
2022/06/16 04:29:19;;;;;;;9.43;5.15;;;;;;;14.34;65.62;101865.44;6337629;22;20090;-85
2022/06/16 04:31:46;;;;;;;9.33;5.30;;;;;;;14.31;66.18;101856.84;6337284;22;20042;-85
2022/06/16 04:34:12;;;;;;;7.88;5.00;;;;;;;14.36;65.10;101867.94;6339715;22;20056;-85
2022/06/16 04:36:38;;;;;;;6.60;4.97;;;;;;;14.42;65.12;101874.44;6339287;22;20010;-85
2022/06/16 04:39:04;;;;;;;11.93;5.10;;;;;;;14.36;65.02;101867.94;6338049;22;19999;-85
2022/06/16 04:41:30;;;;;;;11.32;5.07;;;;;;;14.38;64.99;101871.31;6339150;22;20009;-85
2022/06/16 04:43:55;;;;;;;7.13;5.03;;;;;;;14.39;65.01;101878.44;6338171;22;20428;-85
2022/06/16 04:46:27;;;;;;;10.55;5.35;;;;;;;14.48;64.80;101885.34;6337971;22;20011;-85
2022/06/16 04:48:57;;;;;;;11.45;5.65;;;;;;;14.54;64.17;101891.81;6339259;22;20030;-85
2022/06/16 04:51:23;;;;;;;12.48;5.55;;;;;;;14.60;64.14;101884.66;6311587;22;20019;-85
2022/06/16 04:53:50;;;;;;;9.20;5.87;;;;;;;14.64;64.23;101886.75;6339498;22;20009;-85
2022/06/16 04:56:16;;;;;;;11.23;5.78;;;;;;;14.63;64.06;101890.56;6337959;22;20007;-85
2022/06/16 04:58:41;;;;;;;9.70;5.47;;;;;;;14.66;63.45;101889.28;6337568;22;20460;-85
2022/06/16 05:01:07;;;;;;;8.77;6.07;;;;;;;14.72;64.18;101889.25;6339480;22;20006;-85
2022/06/16 05:03:35;;;;;;;8.43;6.10;;;;;;;14.72;63.72;101891.16;6337820;22;20011;-85
2022/06/16 05:06:00;;;;;;;13.70;6.57;;;;;;;14.84;64.28;101905.81;6311624;22;20014;-85
2022/06/16 05:08:26;;;;;;;9.07;6.47;;;;;;;14.80;63.51;101893.63;6339063;22;20013;-88
2022/06/16 05:10:52;;;;;;;9.88;6.25;;;;;;;14.85;63.10;101899.28;6337652;22;20055;-85
2022/06/16 05:13:18;;;;;;;11.07;6.50;;;;;;;14.87;62.60;101899.91;6337491;22;20017;-85
2022/06/16 05:15:44;;;;;;;9.68;6.47;;;;;;;14.96;62.50;101910.59;6337495;22;20361;-85
2022/06/16 05:18:12;;;;;;;9.15;6.28;;;;;;;14.99;62.24;101907.41;6336953;22;19999;-84
2022/06/16 05:20:40;;;;;;;9.30;5.90;;;;;;;15.05;61.69;101917.47;6337624;22;20002;-85
2022/06/16 05:23:06;;;;;;;9.48;5.88;;;;;;;15.14;61.21;101924.34;6337679;22;20015;-85
2022/06/16 05:25:34;;;;;;;8.50;5.70;;;;;;;15.24;60.21;101912.94;6337474;22;20390;-90
2022/06/16 05:28:09;;;;;;;8.50;5.88;;;;;;;15.33;60.08;101910.78;6337508;22;20412;-88
2022/06/16 05:30:52;;;;;;;9.23;6.15;;;;;;;15.45;59.53;101908.97;6339046;22;19998;-88
2022/06/16 05:33:46;;;;;;;;;;;;;;;;;;;;;
2022/06/16 05:36:21;;;;;;;7.70;5.70;;;;;;;15.56;59.20;101932.88;6336356;22;20007;-89
2022/06/16 05:39:07;;;;;;;12.68;6.30;;;;;;;15.61;58.98;101940.41;6313416;22;20039;-89
2022/06/16 05:42:08;;;;;;;;;;;;;;;;;;;;;
2022/06/16 05:44:43;;;;;;;11.95;6.10;;;;;;;15.57;58.83;101939.19;6332281;22;20091;-89
2022/06/16 05:47:33;;;;;;;9.83;5.47;;;;;;;15.67;58.15;101957.84;6312296;22;20017;-89
2022/06/16 05:50:22;;;;;;;9.43;5.03;;;;;;;15.61;57.23;101949.47;6312123;22;20310;-89
2022/06/16 05:55:54;;;;;;;7.65;4.80;;;;;;;15.73;56.59;101943.28;6326954;22;20025;-89
2022/06/16 05:58:22;;;;;;;8.02;4.65;;;;;;;15.78;56.42;101954.41;6312255;22;20102;-85
2022/06/16 06:01:32;;;;;;;9.60;5.20;;;;;;;15.74;56.49;101945.78;6337723;22;20428;-89
2022/06/16 06:04:08;;;;;;;7.07;4.45;;;;;;;15.84;55.39;101955.41;6303303;22;20351;-87
2022/06/16 06:06:34;;;;;;;7.93;4.20;;;;;;;15.83;54.65;101962.78;6338990;22;20081;-88
2022/06/16 06:17:20;;;;;;;6.55;3.72;;;;;;;16.02;53.62;101962.81;6337679;22;20018;-88
2022/06/16 06:19:56;;;;;;;7.22;3.80;;;;;;;16.04;53.69;101961.53;6337296;22;20003;-87
2022/06/16 06:22:31;;;;;;;6.37;3.63;;;;;;;16.07;53.62;101961.09;6311526;22;20060;-88
2022/06/16 06:25:09;;;;;;;9.65;3.83;;;;;;;16.13;52.84;101965.66;6311929;22;20084;-88
2022/06/16 06:27:39;;;;;;;9.18;3.55;;;;;;;16.14;53.43;101967.34;6336775;22;20109;-87
2022/06/16 06:30:23;;;;;;;4.35;3.10;;;;;;;16.19;53.14;101972.16;6336689;22;20003;-88
2022/06/16 06:32:49;;;;;;;9.25;3.70;;;;;;;16.21;51.72;101970.03;6336391;22;20109;-88
2022/06/16 06:35:25;;;;;;;10.20;3.83;;;;;;;16.22;52.22;101965.38;6336641;22;20013;-88
2022/06/16 06:38:01;;;;;;;;;;;;;;;;;;;;;
2022/06/16 06:41:04;;;;;;;7.20;3.60;;;;;;;16.33;51.79;101966.53;6339907;22;20078;-89
2022/06/16 06:43:33;;;;;;;4.90;2.72;;;;;;;16.46;51.91;101986.41;6313029;22;20011;-88
2022/06/16 06:45:58;;;;;;;6.75;3.00;;;;;;;16.51;51.42;101973.94;6312381;22;20011;-96
2022/06/16 06:48:42;;;;;;;6.43;3.50;;;;;;;16.53;51.22;101980.03;6339356;22;20370;-88
2022/06/16 06:51:08;;;;;;;6.90;3.08;;;;;;;16.60;51.39;101981.63;6338506;22;20003;-87
2022/06/16 06:53:41;;;;;;;9.30;3.20;;;;;;;16.60;51.50;101970.66;6337732;22;20089;-88
2022/06/16 06:56:29;;;;;;;;;;;;;;;;;;;;;
2022/06/16 07:02:27;;;;;;;5.65;2.25;;;;;;;16.76;49.55;101984.81;6287980;22;20007;-91
2022/06/16 07:05:11;;;;;;;;;;;;;;;;;;;;;
2022/06/16 07:07:45;;;;;;;4.03;2.30;;;;;;;16.89;48.63;101990.19;6339054;22;20086;-91
2022/06/16 07:11:20;;;;;;;9.07;2.45;;;;;;;17.03;48.58;102009.19;6276216;22;20414;-90
2022/06/16 07:13:55;;;;;;;4.82;2.10;;;;;;;17.02;47.87;102013.81;6250624;22;20010;-89
2022/06/16 07:16:27;;;;;;;6.60;2.42;;;;;;;17.05;48.24;102013.38;6224753;22;20016;-89
2022/06/16 07:19:18;;;;;;;3.67;2.17;;;;;;;17.09;49.08;102017.31;6224154;22;20493;-91
2022/06/16 07:21:58;;;;;;;4.10;2.23;;;;;;;17.17;48.49;102019.75;6289176;22;20367;-87
2022/06/16 07:24:28;;;;;;;4.85;2.13;;;;;;;17.27;46.92;102023.84;6338245;22;20003;-87
2022/06/16 07:26:56;;;;;;;5.53;2.50;;;;;;;17.22;47.15;102023.72;6338569;22;20412;-87
2022/06/16 07:29:25;;;;;;;7.68;2.10;;;;;;;17.23;48.22;102019.88;6338615;22;20011;-87
2022/06/16 07:31:54;;;;;;;6.60;2.42;;;;;;;17.31;48.35;102038.78;6333335;22;20030;-87
2022/06/16 07:34:25;;;;;;;5.93;2.23;;;;;;;17.32;47.78;102035.81;6281651;22;20010;-88
2022/06/16 07:36:51;;;;;;;6.95;2.83;;;;;;;17.40;48.92;102053.84;6282039;22;20326;-87
2022/06/16 07:39:19;;;;;;;6.15;2.70;;;;;;;17.43;48.50;102052.53;6307678;22;20003;-87
2022/06/16 07:41:48;;;;;;;6.20;2.93;;;;;;;17.45;48.39;102058.63;6281284;22;20447;-87
2022/06/16 07:44:19;;;;;;;10.10;2.65;;;;;;;17.46;49.17;102046.59;6280188;22;20031;-87
2022/06/16 07:47:01;;;;;;;8.77;3.22;;;;;;;17.56;49.78;102060.59;6279757;22;20523;-88
2022/06/16 07:50:01;;;;;;;7.78;3.60;;;;;;;17.62;49.27;102070.63;6256338;22;20007;-87
2022/06/16 07:52:30;;;;;;;5.40;2.72;;;;;;;17.64;48.76;102062.16;6260755;22;20011;-88
2022/06/16 07:54:58;;;;;;;8.10;3.10;;;;;;;17.67;48.48;102058.94;6280936;22;20417;-88
2022/06/16 07:57:31;;;;;;;7.40;3.15;;;;;;;17.76;48.75;102064.94;6280943;22;20329;-87
2022/06/16 08:00:00;;;;;;;7.85;2.70;;;;;;;17.82;48.15;102069.50;6281297;22;20007;-87
2022/06/16 08:02:27;;;;;;;5.93;2.72;;;;;;;17.83;48.61;102060.19;6280517;22;20007;-87
2022/06/16 08:04:53;;;;;;;8.48;3.20;;;;;;;17.86;48.63;102062.47;6280773;22;20003;-87
2022/06/16 08:07:19;;;;;;;5.53;2.57;;;;;;;17.88;48.34;102066.66;6308239;22;20368;-87
2022/06/16 08:09:45;;;;;;;10.18;2.58;;;;;;;17.93;47.98;102068.72;6280690;22;19999;-87
2022/06/16 08:12:15;;;;;;;6.60;2.53;;;;;;;18.02;48.02;102072.78;6280792;22;20022;-87
2022/06/16 08:14:45;;;;;;;4.65;2.50;;;;;;;18.17;46.77;102088.00;6280661;22;20026;-87
2022/06/16 08:17:35;;;;;;;5.10;2.55;;;;;;;18.18;47.19;102082.25;6280441;22;20007;-87
2022/06/16 08:20:01;;;;;;;4.38;2.38;;;;;;;18.28;47.05;102084.44;6280487;22;20094;-87
2022/06/16 08:22:37;;;;;;;4.88;2.80;;;;;;;18.28;47.07;102072.59;6280355;22;20069;-87
2022/06/16 08:25:11;;;;;;;8.17;3.40;;;;;;;18.30;47.36;102074.03;6308151;22;20025;-87
2022/06/16 08:27:39;;;;;;;4.90;2.97;;;;;;;18.33;48.14;102065.31;6281046;22;20540;-87
2022/06/16 08:30:12;;;;;;;6.70;2.53;;;;;;;18.47;47.04;102070.56;6280846;22;20007;-87
2022/06/16 08:32:41;;;;;;;8.30;2.80;;;;;;;18.49;45.48;102066.53;6307927;22;20403;-87
2022/06/16 08:35:09;;;;;;;4.53;2.45;;;;;;;18.61;45.85;102072.00;6255605;22;20014;-87
2022/06/16 08:37:38;;;;;;;6.40;2.60;;;;;;;18.69;46.16;102068.06;6280268;22;20014;-87
2022/06/16 08:40:09;;;;;;;5.25;2.80;;;;;;;18.67;44.69;102065.56;6280569;22;20003;-88
2022/06/16 08:42:50;;;;;;;5.25;2.60;;;;;;;18.83;45.58;102074.16;6255817;22;20007;-88
2022/06/16 08:45:44;;;;;;;;;;;;;;;;;;;;;
2022/06/16 08:48:58;;;;;;;5.03;2.75;;;;;;;18.95;45.81;102066.75;6308088;22;20070;-89
2022/06/16 08:51:36;;;;;;;3.70;2.50;;;;;;;19.11;44.85;102082.50;6307241;22;20003;-87
2022/06/16 08:55:04;;;;;;;4.22;2.70;;;;;;;19.13;44.95;102092.41;6281017;22;20007;-87
2022/06/16 08:58:07;;;;;;;6.30;2.67;;;;;;;19.21;44.35;102098.38;6281201;22;20052;-87
2022/06/16 09:00:47;;;;;;;4.10;2.70;;;;;;;19.34;43.89;102104.69;6260375;22;20014;-88
2022/06/16 09:03:16;;;;;;;4.88;2.55;;;;;;;19.44;43.86;102114.00;6280980;22;20007;-88
2022/06/16 09:06:03;;;;;;;6.07;2.77;;;;;;;19.50;43.57;102101.16;6280628;22;20420;-88
2022/06/16 09:09:06;;;;;;;5.25;2.70;;;;;;;19.60;43.73;102117.03;6280419;22;20034;-88
2022/06/16 09:11:38;;;;;;;4.80;3.00;;;;;;;19.68;43.44;102113.06;6279858;22;20096;-87
2022/06/16 09:15:10;;;;;;;6.72;2.85;;;;;;;19.83;43.88;102118.91;6280710;22;20096;-88
2022/06/16 09:17:28;;;;;;;6.90;2.85;;;;;;;19.88;43.62;102107.97;6305686;22;20025;-88
2022/06/16 09:20:54;;;;;;;9.17;3.00;;;;;;;20.01;43.49;102117.00;6280532;22;20006;-88
2022/06/16 09:24:06;;;;;;;5.50;2.80;;;;;;;20.14;43.51;102120.28;6153089;23;20010;-87
2022/06/16 09:26:50;;;;;;;4.50;3.03;;;;;;;20.27;43.34;102121.03;6269935;22;20008;-88
2022/06/16 09:29:41;;;;;;;9.10;3.30;;;;;;;20.33;42.71;102104.34;6280573;22;20018;-87
2022/06/16 09:32:28;;;;;;;;;;;;;;;;;;;;;
2022/06/16 09:35:32;;;;;;;5.27;2.77;;;;;;;20.71;42.39;102104.66;6308132;22;20017;-88
2022/06/16 09:38:32;;;;;;;;;;;;;;;;;;;;;
2022/06/16 09:44:29;;;;;;;10.32;2.90;;;;;;;21.13;41.07;102106.91;6291442;22;20057;-88
2022/06/16 09:47:14;;;;;;;6.13;3.45;;;;;;;21.24;40.68;102113.38;6280479;22;20003;-88
2022/06/16 09:49:50;;;;;;;5.23;3.43;;;;;;;21.35;40.58;102106.91;6279921;22;20074;-88
2022/06/16 09:52:48;;;;;;;6.57;3.20;;;;;;;21.62;40.95;102125.44;6276276;22;20011;-88
2022/06/16 09:55:29;;;;;;;9.13;3.38;;;;;;;21.83;40.80;102123.72;6266699;22;20003;-87
2022/06/16 09:58:10;;;;;;;11.30;3.67;;;;;;;21.92;40.43;102104.75;6280208;22;20031;-88
2022/06/16 10:00:47;;;;;;;4.47;3.50;;;;;;;22.08;41.36;102103.81;6280379;22;20050;-88
2022/06/16 10:03:41;;;;;;;10.13;3.57;;;;;;;22.15;38.89;102111.88;6279868;22;20057;-88
2022/06/16 10:06:19;;;;;;;7.97;3.75;;;;;;;22.14;39.67;102115.75;6257350;22;20030;-88
2022/06/16 10:09:32;;;;;;;;;;;;;;;;;;;;;
2022/06/16 10:12:26;;;;;;;5.93;3.33;;;;;;;22.37;38.86;102113.75;6307329;22;20078;-87
2022/06/16 10:15:12;;;;;;;9.57;3.38;;;;;;;22.58;38.64;102109.22;6281902;22;20014;-88
2022/06/16 10:17:43;;;;;;;7.73;3.97;;;;;;;22.66;38.90;102096.81;6281787;22;20007;-88
2022/06/16 10:20:17;;;;;;;6.25;3.40;;;;;;;22.89;39.57;102114.94;6282177;22;20053;-88
2022/06/16 10:23:14;;;;;;;12.10;3.80;;;;;;;23.02;39.00;102111.69;6282010;22;20425;-88
2022/06/16 10:25:58;;;;;;;;;;;;;;;;;;;;;
2022/06/16 10:28:49;;;;;;;8.82;3.80;;;;;;;23.43;38.36;102124.88;6309473;22;20082;-88
2022/06/16 10:31:34;;;;;;;7.63;4.40;;;;;;;23.44;36.95;102135.72;6235229;22;20057;-88
2022/06/16 10:34:01;;;;;;;9.25;4.25;;;;;;;23.42;37.18;102123.25;6333959;22;20378;-87
2022/06/16 10:36:30;;;;;;;9.38;4.05;;;;;;;23.54;37.69;102126.59;6338956;22;20018;-88
2022/06/16 10:39:43;;;;;;;11.75;3.40;;;;;;;23.90;37.74;102140.59;6340530;22;20007;-88
2022/06/16 10:42:30;;;;;;;;;;;;;;;;;;;;;
2022/06/16 10:45:05;;;;;;;8.77;3.47;;;;;;;24.34;36.73;102126.19;6340138;22;20082;-87
2022/06/16 10:48:00;;;;;;;8.10;3.60;;;;;;;24.42;35.85;102118.41;6338496;22;20033;-88
2022/06/16 10:51:33;;;;;;;7.97;3.20;;;;;;;24.63;36.30;102125.63;6338301;22;20006;-89
2022/06/16 10:58:17;;;;;;;6.03;3.35;;;;;;;24.98;35.37;102117.47;6340142;22;20120;-88
2022/06/16 11:01:17;;;;;;;;;;;;;;;;;;;;;
2022/06/16 11:04:25;;;;;;;7.18;3.28;;;;;;;25.43;35.39;102114.84;6340445;22;20086;-89
2022/06/16 11:07:06;;;;;;;;;;;;;;;;;;;;;
2022/06/16 11:10:06;;;;;;;8.82;3.40;;;;;;;26.08;35.01;102131.41;6340099;22;20073;-87
2022/06/16 11:12:55;;;;;;;4.78;3.30;;;;;;;26.39;33.69;102100.56;6329025;22;20419;-87
2022/06/16 11:15:50;;;;;;;5.10;3.30;;;;;;;26.82;33.38;102114.59;6311262;22;20018;-88
2022/06/16 11:19:05;;;;;;;9.60;3.80;;;;;;;27.26;32.95;102094.00;6338105;22;20003;-87
2022/06/16 11:25:36;;;;;;;6.13;3.35;;;;;;;32.70;26.14;102094.22;6322948;22;20065;-88
2022/06/16 11:28:06;;;;;;;7.45;3.58;;;;;;;35.10;23.02;102098.66;6339429;22;20017;-83
2022/06/16 11:30:47;;;;;;;6.80;3.40;;;;;;;36.70;20.88;102097.19;6340293;22;20006;-83
2022/06/16 11:37:10;;;;;;;5.38;3.35;;;;;;;40.95;17.92;102106.06;6340649;22;20099;-83
2022/06/16 11:40:00;;;;;;;6.30;3.53;;;;;;;42.50;16.22;102100.09;6255013;22;20006;-83
2022/06/16 11:43:03;;;;;;;5.43;3.53;;;;;;;43.24;13.52;102086.94;6339368;22;20067;-83
2022/06/16 11:46:06;;;;;;;5.17;3.10;;;;;;;44.68;14.22;102076.66;6214103;23;20020;-83
2022/06/16 11:49:03;;;;;;;4.45;3.70;;;;;;;45.05;12.75;102079.94;6182076;23;20492;-83
2022/06/16 11:51:34;;;;;;;8.75;4.18;;;;;;;46.01;12.45;102071.31;6328493;22;20003;-83
2022/06/16 11:53:59;;;;;;;6.43;4.15;;;;;;;46.81;10.97;102080.19;6338218;22;20012;-84
2022/06/16 11:56:35;;;;;;;6.30;4.27;;;;;;;46.46;11.60;102064.41;6340024;22;20436;-83
2022/06/16 11:59:23;;;;;;;7.88;3.92;;;;;;;46.99;12.02;102076.16;6340686;22;20085;-85
2022/06/16 12:13:01;;;;;;;8.18;4.63;;;;;;;48.63;10.90;102073.53;6338832;22;20089;-85
2022/06/16 12:16:10;;;;;;;7.00;5.22;;;;;;;48.18;11.30;102068.56;6340043;22;20007;-85
2022/06/16 12:19:01;;;;;;;8.10;5.53;;;;;;;48.95;10.90;102071.84;6337389;22;20003;-84
2022/06/16 12:21:40;;;;;;;5.33;4.70;;;;;;;48.74;10.17;102078.19;6338143;22;20017;-84
2022/06/16 12:24:29;;;;;;;6.88;4.93;;;;;;;48.90;10.64;102077.34;6338358;22;20355;-84
2022/06/16 12:26:57;;;;;;;7.10;5.82;;;;;;;48.07;9.74;102086.06;6339886;22;20027;-84
2022/06/16 12:29:48;;;;;;;5.93;4.80;;;;;;;48.79;10.54;102083.41;6338003;22;20053;-85
2022/06/16 12:32:26;;;;;;;6.32;5.25;;;;;;;49.33;9.48;102099.97;6337861;22;20011;-84
2022/06/16 12:35:13;;;;;;;5.53;5.03;;;;;;;50.66;9.64;102122.88;6337696;22;20014;-84
2022/06/16 12:37:44;;;;;;;5.88;5.38;;;;;;;51.06;8.53;102110.72;6339021;22;20472;-84
2022/06/16 12:40:17;;;;;;;10.25;6.07;;;;;;;50.95;8.31;102119.75;6338499;22;20068;-84
2022/06/16 12:42:48;;;;;;;7.85;6.05;;;;;;;51.27;7.70;102109.09;6337970;22;20044;-84
2022/06/16 12:45:33;;;;;;;10.02;5.95;;;;;;;51.45;8.56;102110.50;6339448;22;20057;-84
2022/06/16 12:48:27;;;;;;;6.13;5.53;;;;;;;50.63;8.17;102098.66;6338533;22;20003;-85
2022/06/16 12:51:01;;;;;;;7.50;5.70;;;;;;;51.00;7.95;102098.97;6338870;22;20030;-84
2022/06/16 12:53:36;;;;;;;7.22;5.60;;;;;;;51.40;8.00;102106.94;6337924;22;20085;-84
2022/06/16 12:56:08;;;;;;;7.55;6.70;;;;;;;50.86;7.77;102094.50;6339292;22;20010;-85
2022/06/16 12:58:49;;;;;;;7.00;6.22;;;;;;;51.49;8.08;102096.69;6339594;22;20006;-85
2022/06/16 13:01:15;;;;;;;7.37;6.37;;;;;;;50.81;7.58;102088.53;6337873;22;20420;-84
2022/06/16 13:03:53;;;;;;;6.15;5.50;;;;;;;49.97;8.84;102076.16;6339582;22;20003;-84
2022/06/16 13:06:22;;;;;;;8.40;5.93;;;;;;;49.92;8.36;102088.28;6337688;22;20007;-85
2022/06/16 13:08:51;;;;;;;8.35;6.13;;;;;;;50.36;7.73;102085.56;6338116;22;20064;-85
2022/06/16 13:11:27;;;;;;;9.02;6.88;;;;;;;51.28;8.13;102096.25;6339278;22;20003;-85
2022/06/16 13:14:07;;;;;;;9.13;6.93;;;;;;;51.92;7.41;102087.06;6337847;22;20013;-85
2022/06/16 13:16:40;;;;;;;9.63;6.13;;;;;;;51.51;7.12;102082.56;6339364;22;20003;-85